Time;durP1;ratioP1;P1;durP2;ratioP2;P2;SDS_P1;SDS_P2;PMS_P1;PMS_P2;Temp;Humidity;BMP_temperature;BMP_pressure;BME280_temperature;BME280_humidity;BME280_pressure;Samples;Min_cycle;Max_cycle;Signal;HPM_P1;HPM_P2
2024/01/29 00:01:05;;;;;;;28.73;19.77;;;;;;;;;;5054015;28;20291;-80
2024/01/29 00:03:33;;;;;;;28.07;19.17;;;;;;;;;;5053655;28;20230;-80
2024/01/29 00:06:00;;;;;;;27.57;19.73;;;;;;;;;;5053023;28;20741;-81
2024/01/29 00:08:27;;;;;;;29.00;20.20;;;;;;;;;;5035416;28;20203;-80
2024/01/29 00:10:54;;;;;;;27.57;19.10;;;;;;;;;;5033245;28;20284;-80
2024/01/29 00:13:21;;;;;;;25.80;19.70;;;;;;;;;;5033513;28;20282;-80
2024/01/29 00:15:48;;;;;;;27.93;20.27;;;;;;;;;;5033292;28;20231;-80
2024/01/29 00:18:17;;;;;;;29.57;20.37;;;;;;;;;;5032775;28;20227;-80
2024/01/29 00:20:44;;;;;;;27.00;19.70;;;;;;;;;;5033327;28;20195;-80
2024/01/29 00:23:11;;;;;;;26.90;20.07;;;;;;;;;;5033380;28;20227;-80
2024/01/29 00:25:38;;;;;;;23.90;19.20;;;;;;;;;;5032928;28;20242;-80
2024/01/29 00:28:07;;;;;;;24.30;20.17;;;;;;;;;;5033425;28;20204;-80
2024/01/29 00:30:34;;;;;;;24.97;20.63;;;;;;;;;;5033023;28;20224;-79
2024/01/29 00:33:01;;;;;;;24.90;19.73;;;;;;;;;;5033127;28;20235;-80
2024/01/29 00:35:30;;;;;;;24.57;19.83;;;;;;;;;;5033164;28;20290;-81
2024/01/29 00:37:57;;;;;;;27.43;19.60;;;;;;;;;;5049609;28;20291;-80
2024/01/29 00:40:25;;;;;;;24.23;19.17;;;;;;;;;;5053063;28;20230;-81
2024/01/29 00:42:52;;;;;;;24.33;19.33;;;;;;;;;;5053261;28;20217;-80
2024/01/29 00:45:20;;;;;;;25.73;19.63;;;;;;;;;;5052894;28;20203;-80
2024/01/29 00:47:47;;;;;;;21.97;18.87;;;;;;;;;;5052408;28;20256;-80
2024/01/29 00:50:14;;;;;;;25.10;18.67;;;;;;;;;;5052684;28;20307;-80
2024/01/29 00:52:43;;;;;;;24.17;19.20;;;;;;;;;;5052944;28;20199;-80
2024/01/29 00:55:10;;;;;;;23.73;18.67;;;;;;;;;;5052559;28;20294;-80
2024/01/29 00:57:37;;;;;;;23.00;18.60;;;;;;;;;;5052454;28;20261;-80
2024/01/29 01:00:06;;;;;;;24.53;18.30;;;;;;;;;;5052666;28;20230;-80
2024/01/29 01:02:33;;;;;;;21.73;18.17;;;;;;;;;;5047547;28;20208;-80
2024/01/29 01:05:01;;;;;;;24.57;19.50;;;;;;;;;;5033064;28;20291;-80
2024/01/29 01:07:28;;;;;;;22.83;19.27;;;;;;;;;;5032632;28;20298;-80
2024/01/29 01:09:57;;;;;;;24.50;20.10;;;;;;;;;;5032493;28;20201;-80
2024/01/29 01:12:24;;;;;;;23.77;18.77;;;;;;;;;;5032203;28;20235;-80
2024/01/29 01:14:51;;;;;;;22.97;18.10;;;;;;;;;;5032390;28;20303;-80
2024/01/29 01:17:18;;;;;;;23.50;19.73;;;;;;;;;;5031891;28;20595;-79
2024/01/29 01:19:46;;;;;;;22.87;19.03;;;;;;;;;;5032275;28;20303;-79
2024/01/29 01:22:14;;;;;;;29.90;21.03;;;;;;;;;;5032403;28;20228;-80
2024/01/29 01:24:41;;;;;;;22.43;18.67;;;;;;;;;;5032235;28;20239;-80
2024/01/29 01:27:11;;;;;;;25.17;19.77;;;;;;;;;;5032187;28;20203;-80
2024/01/29 01:29:39;;;;;;;25.67;19.30;;;;;;;;;;5032010;28;20193;-80
2024/01/29 01:32:06;;;;;;;26.77;19.00;;;;;;;;;;5031392;28;20327;-81
2024/01/29 01:34:33;;;;;;;25.03;19.50;;;;;;;;;;5031871;28;20396;-80
2024/01/29 01:37:00;;;;;;;25.43;20.30;;;;;;;;;;5041038;28;20287;-80
2024/01/29 01:39:28;;;;;;;22.90;18.70;;;;;;;;;;5052153;28;20224;-80
2024/01/29 01:41:55;;;;;;;23.83;18.80;;;;;;;;;;5051460;28;20287;-79
2024/01/29 01:44:23;;;;;;;22.30;18.43;;;;;;;;;;5051763;28;20279;-80
2024/01/29 01:46:50;;;;;;;24.37;18.67;;;;;;;;;;5051972;28;20203;-80
2024/01/29 01:49:18;;;;;;;24.00;19.10;;;;;;;;;;5051523;28;20206;-80
2024/01/29 01:51:45;;;;;;;22.77;18.73;;;;;;;;;;5051468;28;20314;-80
2024/01/29 01:54:13;;;;;;;23.23;18.93;;;;;;;;;;5051955;28;20243;-80
2024/01/29 01:56:41;;;;;;;26.30;19.90;;;;;;;;;;5052061;28;20618;-80
2024/01/29 01:59:09;;;;;;;24.23;18.07;;;;;;;;;;5051592;28;20227;-80
2024/01/29 02:01:37;;;;;;;25.23;19.03;;;;;;;;;;5051179;28;20290;-81
2024/01/29 02:04:05;;;;;;;23.60;19.37;;;;;;;;;;5051282;28;20277;-80
2024/01/29 02:06:32;;;;;;;23.17;18.63;;;;;;;;;;5051288;28;20290;-81
2024/01/29 02:09:00;;;;;;;27.10;18.67;;;;;;;;;;5050916;28;20196;-79
2024/01/29 02:11:27;;;;;;;24.30;18.17;;;;;;;;;;5051005;28;20664;-80
2024/01/29 02:13:54;;;;;;;20.97;17.43;;;;;;;;;;5051115;28;20203;-80
2024/01/29 02:16:21;;;;;;;21.90;18.33;;;;;;;;;;5023128;28;20208;-80
2024/01/29 02:18:50;;;;;;;22.13;18.70;;;;;;;;;;5011746;28;20203;-80
2024/01/29 02:21:17;;;;;;;24.27;18.50;;;;;;;;;;5014364;28;20290;-80
2024/01/29 02:23:46;;;;;;;24.20;19.17;;;;;;;;;;5020135;28;20314;-80
2024/01/29 02:26:13;;;;;;;24.47;19.03;;;;;;;;;;5011591;28;20233;-80
2024/01/29 02:28:41;;;;;;;24.87;18.57;;;;;;;;;;5011129;28;20318;-81
2024/01/29 02:31:08;;;;;;;24.53;18.43;;;;;;;;;;5010983;28;20780;-81
2024/01/29 02:33:35;;;;;;;22.23;18.30;;;;;;;;;;5010814;28;20199;-80
2024/01/29 02:36:02;;;;;;;23.60;18.97;;;;;;;;;;5013676;28;20287;-80
2024/01/29 02:38:30;;;;;;;24.20;18.10;;;;;;;;;;5051023;28;20735;-80
2024/01/29 02:40:58;;;;;;;24.50;17.87;;;;;;;;;;5050878;28;20282;-81
2024/01/29 02:43:25;;;;;;;24.57;19.47;;;;;;;;;;5050280;28;20291;-80
2024/01/29 02:45:52;;;;;;;24.67;19.37;;;;;;;;;;5051405;28;20281;-80
2024/01/29 02:48:20;;;;;;;23.13;18.20;;;;;;;;;;5050794;28;20198;-80
2024/01/29 02:50:48;;;;;;;22.57;18.50;;;;;;;;;;5050851;28;20200;-80
2024/01/29 02:53:15;;;;;;;23.07;17.13;;;;;;;;;;5050856;28;20207;-80
2024/01/29 02:55:42;;;;;;;24.13;18.43;;;;;;;;;;5050554;28;20283;-80
2024/01/29 02:58:10;;;;;;;22.40;17.33;;;;;;;;;;5050681;28;20664;-80
2024/01/29 03:00:38;;;;;;;24.60;17.53;;;;;;;;;;5050630;28;20282;-80
2024/01/29 03:03:05;;;;;;;22.37;17.63;;;;;;;;;;5051286;28;20307;-79
2024/01/29 03:05:32;;;;;;;22.33;17.30;;;;;;;;;;5050723;28;20697;-80
2024/01/29 03:07:59;;;;;;;22.60;17.83;;;;;;;;;;5050553;28;20390;-80
2024/01/29 03:10:27;;;;;;;22.90;17.63;;;;;;;;;;5050465;28;20233;-80
2024/01/29 03:12:54;;;;;;;21.50;17.30;;;;;;;;;;5050132;28;20231;-79
2024/01/29 03:15:23;;;;;;;23.73;17.97;;;;;;;;;;5020694;28;20275;-80
2024/01/29 03:17:51;;;;;;;19.53;17.17;;;;;;;;;;5010858;28;20201;-80
2024/01/29 03:20:18;;;;;;;25.37;17.80;;;;;;;;;;5011510;28;20224;-80
2024/01/29 03:22:45;;;;;;;22.20;17.93;;;;;;;;;;5011162;28;20320;-80
2024/01/29 03:25:12;;;;;;;24.63;17.73;;;;;;;;;;5010710;28;20260;-79
2024/01/29 03:27:39;;;;;;;21.60;16.83;;;;;;;;;;5011998;28;20204;-80
2024/01/29 03:30:07;;;;;;;25.13;17.43;;;;;;;;;;5014524;28;20295;-80
2024/01/29 03:32:36;;;;;;;22.30;16.47;;;;;;;;;;5014203;28;20315;-79
2024/01/29 03:35:03;;;;;;;21.93;17.27;;;;;;;;;;5014410;28;20232;-80
2024/01/29 03:37:30;;;;;;;25.43;17.97;;;;;;;;;;5027406;28;20239;-79
2024/01/29 03:39:57;;;;;;;23.17;17.40;;;;;;;;;;5034435;28;20205;-80
2024/01/29 03:42:24;;;;;;;21.97;17.33;;;;;;;;;;5033434;28;20376;-80
2024/01/29 03:44:52;;;;;;;22.70;17.43;;;;;;;;;;5033854;28;20196;-79
2024/01/29 03:47:19;;;;;;;25.97;17.97;;;;;;;;;;5033940;28;20287;-79
2024/01/29 03:49:47;;;;;;;24.53;17.17;;;;;;;;;;5033834;28;20224;-80
2024/01/29 03:52:14;;;;;;;23.33;17.33;;;;;;;;;;5034210;28;20223;-79
2024/01/29 03:54:42;;;;;;;23.33;17.47;;;;;;;;;;5033486;28;20231;-80
2024/01/29 03:57:09;;;;;;;22.63;17.20;;;;;;;;;;5033609;28;20715;-80
2024/01/29 03:59:36;;;;;;;22.60;17.47;;;;;;;;;;5033575;28;20208;-80
2024/01/29 04:02:03;;;;;;;22.70;17.03;;;;;;;;;;5033427;28;20649;-80
2024/01/29 04:04:31;;;;;;;25.17;17.57;;;;;;;;;;5034057;28;20211;-79
2024/01/29 04:07:00;;;;;;;23.50;17.13;;;;;;;;;;5033489;28;20220;-80
2024/01/29 04:09:27;;;;;;;23.50;16.80;;;;;;;;;;5033623;28;20203;-80
2024/01/29 04:11:54;;;;;;;23.40;16.57;;;;;;;;;;5032920;28;20227;-80
2024/01/29 04:14:22;;;;;;;21.70;16.80;;;;;;;;;;5033968;28;20219;-80
2024/01/29 04:16:49;;;;;;;22.53;16.93;;;;;;;;;;5033538;28;20196;-80
2024/01/29 04:19:16;;;;;;;21.70;16.80;;;;;;;;;;5032847;28;20778;-79
2024/01/29 04:21:43;;;;;;;21.77;16.03;;;;;;;;;;5033303;28;20295;-80
2024/01/29 04:24:12;;;;;;;21.73;16.70;;;;;;;;;;5033331;28;20322;-79
2024/01/29 04:26:40;;;;;;;25.70;16.23;;;;;;;;;;5032800;28;20287;-77
2024/01/29 04:29:08;;;;;;;21.90;16.37;;;;;;;;;;5033419;28;20200;-80
2024/01/29 04:31:35;;;;;;;23.37;16.93;;;;;;;;;;5033163;28;20228;-80
2024/01/29 04:34:03;;;;;;;22.50;16.03;;;;;;;;;;5033332;28;20284;-79
2024/01/29 04:36:30;;;;;;;23.23;16.47;;;;;;;;;;5033188;28;20207;-79
2024/01/29 04:38:57;;;;;;;21.90;16.20;;;;;;;;;;5032380;28;20296;-79
2024/01/29 04:41:26;;;;;;;21.90;15.50;;;;;;;;;;5033063;28;20232;-79
2024/01/29 04:43:53;;;;;;;20.23;16.00;;;;;;;;;;5033010;28;20283;-79
2024/01/29 04:46:19;;;;;;;20.57;16.17;;;;;;;;;;5032991;28;20291;-80
2024/01/29 04:48:47;;;;;;;21.30;16.00;;;;;;;;;;5033027;28;20205;-80
2024/01/29 04:51:14;;;;;;;23.30;16.23;;;;;;;;;;5032860;28;20196;-80
2024/01/29 04:53:41;;;;;;;21.03;16.27;;;;;;;;;;5032475;28;20232;-78
2024/01/29 04:56:09;;;;;;;18.80;15.40;;;;;;;;;;5032691;28;20278;-80
2024/01/29 04:58:37;;;;;;;22.43;15.80;;;;;;;;;;5032725;28;20291;-80
2024/01/29 05:01:04;;;;;;;22.37;16.30;;;;;;;;;;5032832;28;20292;-80
2024/01/29 05:03:32;;;;;;;24.07;16.70;;;;;;;;;;5030304;28;20287;-81
2024/01/29 05:05:59;;;;;;;21.83;15.60;;;;;;;;;;5032308;28;20204;-80
2024/01/29 05:08:26;;;;;;;24.10;16.47;;;;;;;;;;5031781;28;20231;-80
2024/01/29 05:10:53;;;;;;;23.47;16.30;;;;;;;;;;5032412;28;20196;-79
2024/01/29 05:13:20;;;;;;;23.80;15.73;;;;;;;;;;5032214;28;20279;-80
2024/01/29 05:15:49;;;;;;;20.87;15.87;;;;;;;;;;5032710;28;20219;-79
2024/01/29 05:18:16;;;;;;;21.20;15.77;;;;;;;;;;5031946;28;20292;-80
2024/01/29 05:20:43;;;;;;;21.80;16.20;;;;;;;;;;5032191;28;20203;-80
2024/01/29 05:23:11;;;;;;;22.30;16.20;;;;;;;;;;5031462;28;20335;-80
2024/01/29 05:25:38;;;;;;;21.60;15.50;;;;;;;;;;5032015;28;20783;-80
2024/01/29 05:28:06;;;;;;;22.90;16.23;;;;;;;;;;5032156;28;20227;-80
2024/01/29 05:30:33;;;;;;;22.27;16.90;;;;;;;;;;5031947;28;20208;-80
2024/01/29 05:33:01;;;;;;;22.77;16.37;;;;;;;;;;5031988;28;20316;-80
2024/01/29 05:35:29;;;;;;;24.03;16.63;;;;;;;;;;5032122;28;20300;-80
2024/01/29 05:37:56;;;;;;;20.93;16.03;;;;;;;;;;5048037;28;20676;-80
2024/01/29 05:40:23;;;;;;;21.13;15.30;;;;;;;;;;5051306;28;20206;-80
2024/01/29 05:42:53;;;;;;;20.27;14.90;;;;;;;;;;5051742;28;20196;-80
2024/01/29 05:45:20;;;;;;;23.00;16.47;;;;;;;;;;5051961;28;20671;-81
2024/01/29 05:47:47;;;;;;;22.10;16.43;;;;;;;;;;5051902;28;20290;-80
2024/01/29 05:50:16;;;;;;;24.07;16.17;;;;;;;;;;5050633;28;20227;-80
2024/01/29 05:52:43;;;;;;;21.93;16.07;;;;;;;;;;5051029;28;20255;-79
2024/01/29 05:55:11;;;;;;;21.40;16.07;;;;;;;;;;5051536;28;20651;-80
2024/01/29 05:57:38;;;;;;;23.33;16.57;;;;;;;;;;5051205;28;20281;-80
2024/01/29 06:00:09;;;;;;;21.90;16.43;;;;;;;;;;5051656;28;20301;-80
2024/01/29 06:02:42;;;;;;;24.13;16.57;;;;;;;;;;5051692;28;20249;-80
2024/01/29 06:05:09;;;;;;;25.10;18.33;;;;;;;;;;5051008;28;20192;-80
2024/01/29 06:07:38;;;;;;;21.13;17.13;;;;;;;;;;5050559;28;20302;-82
2024/01/29 06:10:06;;;;;;;22.93;16.97;;;;;;;;;;5051466;28;20218;-82
2024/01/29 06:12:33;;;;;;;24.20;17.70;;;;;;;;;;5050881;28;20227;-81
2024/01/29 06:15:00;;;;;;;22.20;16.50;;;;;;;;;;5051506;28;20218;-82
2024/01/29 06:17:27;;;;;;;23.07;16.40;;;;;;;;;;5050956;28;20286;-82
2024/01/29 06:19:54;;;;;;;25.37;16.67;;;;;;;;;;5050659;28;20293;-83
2024/01/29 06:22:22;;;;;;;20.90;16.63;;;;;;;;;;5051052;28;20249;-80
2024/01/29 06:24:50;;;;;;;21.13;16.60;;;;;;;;;;5051055;28;20263;-81
2024/01/29 06:27:17;;;;;;;24.17;17.00;;;;;;;;;;5051100;28;20206;-82
2024/01/29 06:29:45;;;;;;;21.33;16.23;;;;;;;;;;5051017;28;20243;-82
2024/01/29 06:32:12;;;;;;;20.73;15.97;;;;;;;;;;5051237;28;20235;-81
2024/01/29 06:34:39;;;;;;;21.13;16.40;;;;;;;;;;5050795;28;20234;-81
2024/01/29 06:37:06;;;;;;;23.27;16.30;;;;;;;;;;5050124;28;20203;-82
2024/01/29 06:39:33;;;;;;;21.97;16.30;;;;;;;;;;5051627;28;20202;-82
2024/01/29 06:42:02;;;;;;;24.43;17.03;;;;;;;;;;5051293;28;20223;-79
2024/01/29 06:44:29;;;;;;;22.53;16.47;;;;;;;;;;5047852;28;20294;-79
2024/01/29 06:46:56;;;;;;;20.80;16.20;;;;;;;;;;5050717;28;20209;-81
2024/01/29 06:49:27;;;;;;;23.40;16.17;;;;;;;;;;5043102;28;20242;-81
2024/01/29 06:51:54;;;;;;;21.67;16.17;;;;;;;;;;5047854;28;20210;-81
2024/01/29 06:54:22;;;;;;;21.33;15.90;;;;;;;;;;5029946;28;20814;-81
2024/01/29 06:56:49;;;;;;;23.03;16.23;;;;;;;;;;5030979;28;20281;-81
2024/01/29 06:59:18;;;;;;;22.07;15.93;;;;;;;;;;4677751;28;9999906;-82
2024/01/29 07:01:45;;;;;;;22.50;16.23;;;;;;;;;;5028185;28;20223;-81
2024/01/29 07:04:13;;;;;;;22.40;16.47;;;;;;;;;;5031260;28;20200;-81
2024/01/29 07:06:40;;;;;;;21.17;15.63;;;;;;;;;;5028447;28;20247;-80
2024/01/29 07:09:07;;;;;;;22.73;15.97;;;;;;;;;;5029690;28;20207;-81
2024/01/29 07:11:34;;;;;;;22.13;16.17;;;;;;;;;;5030878;28;20977;-80
2024/01/29 07:14:02;;;;;;;23.80;16.53;;;;;;;;;;5030071;28;20736;-81
2024/01/29 07:16:30;;;;;;;24.87;17.23;;;;;;;;;;5033762;28;20224;-82
2024/01/29 07:18:57;;;;;;;24.57;17.50;;;;;;;;;;5034284;28;20254;-82
2024/01/29 07:21:24;;;;;;;25.20;17.27;;;;;;;;;;5034725;28;20220;-81
2024/01/29 07:23:52;;;;;;;25.07;17.53;;;;;;;;;;5034473;28;20291;-82
2024/01/29 07:26:19;;;;;;;27.63;16.57;;;;;;;;;;5030619;28;20235;-81
2024/01/29 07:28:46;;;;;;;26.60;17.33;;;;;;;;;;5034145;28;20196;-82
2024/01/29 07:31:13;;;;;;;26.00;16.87;;;;;;;;;;5034917;28;20283;-81
2024/01/29 07:33:42;;;;;;;24.27;16.67;;;;;;;;;;5033769;28;20259;-82
2024/01/29 07:36:09;;;;;;;25.67;17.10;;;;;;;;;;5034097;28;20234;-82
2024/01/29 07:38:37;;;;;;;24.77;17.20;;;;;;;;;;5034472;28;20287;-82
2024/01/29 07:41:04;;;;;;;25.67;17.53;;;;;;;;;;5037486;28;20661;-81
2024/01/29 07:43:31;;;;;;;24.60;17.10;;;;;;;;;;5034182;28;20196;-81
2024/01/29 07:45:58;;;;;;;23.47;16.20;;;;;;;;;;5034137;28;20244;-83
2024/01/29 07:48:26;;;;;;;23.97;16.70;;;;;;;;;;5033947;28;20286;-81
2024/01/29 07:50:54;;;;;;;23.70;16.47;;;;;;;;;;5034518;28;20227;-82
2024/01/29 07:53:21;;;;;;;24.77;16.20;;;;;;;;;;5033927;28;20715;-81
2024/01/29 07:55:49;;;;;;;22.47;16.70;;;;;;;;;;5034317;28;20259;-82
2024/01/29 07:58:16;;;;;;;24.27;16.63;;;;;;;;;;5034124;28;20280;-82
2024/01/29 08:00:43;;;;;;;21.73;16.23;;;;;;;;;;5034386;28;20222;-81
2024/01/29 08:03:10;;;;;;;22.17;16.27;;;;;;;;;;5033281;28;20933;-82
2024/01/29 08:05:37;;;;;;;24.67;16.77;;;;;;;;;;5033858;28;20761;-81
2024/01/29 08:08:07;;;;;;;25.20;16.27;;;;;;;;;;5033990;28;20556;-81
2024/01/29 08:10:35;;;;;;;23.07;16.33;;;;;;;;;;5034059;28;20566;-81
2024/01/29 08:13:02;;;;;;;24.93;16.27;;;;;;;;;;5032965;28;20650;-81
2024/01/29 08:15:29;;;;;;;22.30;15.17;;;;;;;;;;5033925;28;20292;-83
2024/01/29 08:17:56;;;;;;;23.17;16.40;;;;;;;;;;5033924;28;20193;-82
2024/01/29 08:20:24;;;;;;;20.53;15.37;;;;;;;;;;5033636;28;20222;-82
2024/01/29 08:22:51;;;;;;;24.43;15.57;;;;;;;;;;5033664;28;20261;-80
2024/01/29 08:25:20;;;;;;;20.87;15.13;;;;;;;;;;5033427;28;20256;-81
2024/01/29 08:27:47;;;;;;;22.37;16.00;;;;;;;;;;5033666;28;20203;-82
2024/01/29 08:30:15;;;;;;;22.10;14.90;;;;;;;;;;5034144;28;20295;-82
2024/01/29 08:32:43;;;;;;;20.70;14.80;;;;;;;;;;5033037;28;20627;-82
2024/01/29 08:35:11;;;;;;;17.90;13.97;;;;;;;;;;5033448;28;20278;-82
2024/01/29 08:37:38;;;;;;;20.00;14.17;;;;;;;;;;5047338;28;20204;-82
2024/01/29 08:40:06;;;;;;;19.33;15.27;;;;;;;;;;5019976;28;20205;-82
2024/01/29 08:42:36;;;;;;;19.77;15.00;;;;;;;;;;5013416;28;20204;-82
2024/01/29 08:45:03;;;;;;;18.27;14.53;;;;;;;;;;5013371;28;20630;-81
2024/01/29 08:47:30;;;;;;;17.40;12.80;;;;;;;;;;5012888;28;20700;-82
2024/01/29 08:49:57;;;;;;;15.13;11.93;;;;;;;;;;5013525;28;20288;-82
2024/01/29 08:52:25;;;;;;;12.97;11.07;;;;;;;;;;5011874;28;20698;-81
2024/01/29 08:54:52;;;;;;;12.33;10.73;;;;;;;;;;5013414;28;20617;-81
2024/01/29 08:57:20;;;;;;;12.13;9.73;;;;;;;;;;5013081;28;20292;-82
2024/01/29 08:59:48;;;;;;;12.67;9.27;;;;;;;;;;5013402;28;20656;-81
2024/01/29 09:02:15;;;;;;;11.17;8.80;;;;;;;;;;5012653;28;20201;-81
2024/01/29 09:04:43;;;;;;;9.87;8.70;;;;;;;;;;5013194;28;20201;-81
2024/01/29 09:07:10;;;;;;;9.87;8.43;;;;;;;;;;5013254;28;20197;-82
2024/01/29 09:09:37;;;;;;;12.23;8.07;;;;;;;;;;5013270;28;20280;-81
2024/01/29 09:12:05;;;;;;;10.80;7.80;;;;;;;;;;5013178;28;20312;-81
2024/01/29 09:14:32;;;;;;;8.57;7.50;;;;;;;;;;5012891;28;20264;-81
2024/01/29 09:17:01;;;;;;;8.93;7.70;;;;;;;;;;5012762;28;20205;-82
2024/01/29 09:19:28;;;;;;;8.23;7.40;;;;;;;;;;5013015;28;20299;-81
2024/01/29 09:21:55;;;;;;;8.07;7.20;;;;;;;;;;5012750;28;20224;-80
2024/01/29 09:24:22;;;;;;;8.20;6.90;;;;;;;;;;5012503;28;20261;-81
2024/01/29 09:26:49;;;;;;;7.57;6.87;;;;;;;;;;5013030;28;20236;-80
2024/01/29 09:29:19;;;;;;;7.63;6.90;;;;;;;;;;5011932;28;20228;-81
2024/01/29 09:31:46;;;;;;;10.03;7.50;;;;;;;;;;5012460;28;20585;-80
2024/01/29 09:34:14;;;;;;;7.90;7.00;;;;;;;;;;5012348;28;20228;-81
2024/01/29 09:36:41;;;;;;;8.67;6.70;;;;;;;;;;5018911;28;20231;-81
2024/01/29 09:39:09;;;;;;;9.73;7.37;;;;;;;;;;5032306;28;20200;-80
2024/01/29 09:41:37;;;;;;;7.50;6.53;;;;;;;;;;5032321;28;20283;-81
2024/01/29 09:44:07;;;;;;;9.10;7.00;;;;;;;;;;5031765;28;20202;-81
2024/01/29 09:46:37;;;;;;;10.33;8.10;;;;;;;;;;5032059;28;20666;-81
2024/01/29 09:49:04;;;;;;;8.53;6.87;;;;;;;;;;5032139;28;20228;-81
2024/01/29 09:51:33;;;;;;;8.97;7.07;;;;;;;;;;5032349;28;20744;-80
2024/01/29 09:54:01;;;;;;;10.53;7.70;;;;;;;;;;5031957;28;20318;-81
2024/01/29 09:56:28;;;;;;;8.30;6.77;;;;;;;;;;5031666;28;20668;-81
2024/01/29 09:58:56;;;;;;;7.83;7.03;;;;;;;;;;5031443;28;20207;-81
2024/01/29 10:01:23;;;;;;;8.80;6.57;;;;;;;;;;5031924;28;20295;-81
2024/01/29 10:03:51;;;;;;;9.07;6.77;;;;;;;;;;5031731;28;20291;-81
2024/01/29 10:06:18;;;;;;;9.60;7.00;;;;;;;;;;5031769;28;20204;-81
2024/01/29 10:08:47;;;;;;;8.27;6.97;;;;;;;;;;5031967;28;20323;-81
2024/01/29 10:11:16;;;;;;;8.77;7.10;;;;;;;;;;5031958;28;20653;-81
2024/01/29 10:13:43;;;;;;;7.33;6.53;;;;;;;;;;5030929;28;20232;-81
2024/01/29 10:16:10;;;;;;;8.57;6.00;;;;;;;;;;5031662;28;20196;-81
2024/01/29 10:18:38;;;;;;;8.53;6.27;;;;;;;;;;5031645;28;20211;-81
2024/01/29 10:21:06;;;;;;;7.73;6.50;;;;;;;;;;5031634;28;20196;-81
2024/01/29 10:23:34;;;;;;;8.37;6.57;;;;;;;;;;5031544;28;20227;-81
2024/01/29 10:26:02;;;;;;;7.67;6.60;;;;;;;;;;5031031;28;20232;-81
2024/01/29 10:28:30;;;;;;;7.93;6.07;;;;;;;;;;5030991;28;20231;-81
2024/01/29 10:30:58;;;;;;;10.43;6.60;;;;;;;;;;5031699;28;20210;-82
2024/01/29 10:33:25;;;;;;;8.23;6.20;;;;;;;;;;5031549;28;20291;-81
2024/01/29 10:35:52;;;;;;;7.27;6.13;;;;;;;;;;5032865;28;20227;-81
2024/01/29 10:38:22;;;;;;;8.03;6.20;;;;;;;;;;5057565;28;20674;-81
2024/01/29 10:40:50;;;;;;;8.37;6.70;;;;;;;;;;5058198;28;20198;-81
2024/01/29 10:43:19;;;;;;;7.07;6.23;;;;;;;;;;5057235;28;20199;-82
2024/01/29 10:45:48;;;;;;;8.43;6.07;;;;;;;;;;5058223;28;20575;-81
2024/01/29 10:48:17;;;;;;;8.63;6.40;;;;;;;;;;5057877;28;20295;-81
2024/01/29 10:50:45;;;;;;;7.53;6.20;;;;;;;;;;5058037;28;20206;-81
2024/01/29 10:53:13;;;;;;;7.23;6.53;;;;;;;;;;5057561;28;20256;-81
2024/01/29 10:55:41;;;;;;;11.00;6.47;;;;;;;;;;5057698;28;20234;-81
2024/01/29 10:58:10;;;;;;;7.77;6.67;;;;;;;;;;5057564;28;20198;-81
2024/01/29 11:00:40;;;;;;;9.70;6.97;;;;;;;;;;5057693;28;20203;-82
2024/01/29 11:03:09;;;;;;;9.70;6.70;;;;;;;;;;5057611;28;20295;-81
2024/01/29 11:05:36;;;;;;;7.70;6.83;;;;;;;;;;5057834;28;20199;-81
2024/01/29 11:08:05;;;;;;;8.93;7.00;;;;;;;;;;5057944;28;20285;-81
2024/01/29 11:10:34;;;;;;;11.83;7.70;;;;;;;;;;5057128;28;20222;-81
2024/01/29 11:13:02;;;;;;;7.50;6.67;;;;;;;;;;5057545;28;20660;-80
2024/01/29 11:15:29;;;;;;;10.30;6.97;;;;;;;;;;5057638;28;20326;-82
2024/01/29 11:17:59;;;;;;;9.73;7.37;;;;;;;;;;5057569;28;20238;-82
2024/01/29 11:20:26;;;;;;;9.17;7.10;;;;;;;;;;5057865;28;20230;-82
2024/01/29 11:22:54;;;;;;;9.70;7.80;;;;;;;;;;5057791;28;20200;-82
2024/01/29 11:25:22;;;;;;;12.03;8.00;;;;;;;;;;5057105;28;20262;-82
2024/01/29 11:27:50;;;;;;;10.70;7.47;;;;;;;;;;5057425;28;20752;-81
2024/01/29 11:30:19;;;;;;;9.23;7.33;;;;;;;;;;5057567;28;20279;-80
2024/01/29 11:32:46;;;;;;;9.93;7.57;;;;;;;;;;5057478;28;20675;-82
2024/01/29 11:35:15;;;;;;;8.27;7.37;;;;;;;;;;5057742;28;20223;-82
2024/01/29 11:37:42;;;;;;;9.53;7.20;;;;;;;;;;5042833;28;20200;-82
2024/01/29 11:40:28;;;;;;;7.40;6.70;;;;;;;;;;5037096;28;20255;-82
2024/01/29 11:42:55;;;;;;;7.23;6.23;;;;;;;;;;5037402;28;20238;-82
2024/01/29 11:45:22;;;;;;;9.53;7.57;;;;;;;;;;5037780;28;20231;-82
2024/01/29 11:47:50;;;;;;;8.77;7.20;;;;;;;;;;5034428;28;20283;-81
2024/01/29 11:50:18;;;;;;;9.50;7.43;;;;;;;;;;5034676;28;20247;-81
2024/01/29 11:52:46;;;;;;;9.00;7.17;;;;;;;;;;5034051;28;20243;-82
2024/01/29 11:55:15;;;;;;;10.33;7.70;;;;;;;;;;5033728;28;20268;-80
2024/01/29 11:57:45;;;;;;;9.10;6.57;;;;;;;;;;5034035;28;20704;-82
2024/01/29 12:00:18;;;;;;;9.73;7.00;;;;;;;;;;5034483;28;20196;-81
2024/01/29 12:02:45;;;;;;;10.03;7.90;;;;;;;;;;5034091;28;20197;-82
2024/01/29 12:05:14;;;;;;;9.37;6.90;;;;;;;;;;5033907;28;20625;-82
2024/01/29 12:07:42;;;;;;;9.17;6.87;;;;;;;;;;5034030;28;20196;-83
2024/01/29 12:10:10;;;;;;;9.37;6.90;;;;;;;;;;5033679;28;20195;-82
2024/01/29 12:12:37;;;;;;;9.37;7.07;;;;;;;;;;5034064;28;20208;-82
2024/01/29 12:15:06;;;;;;;9.77;6.83;;;;;;;;;;5033890;28;20319;-82
2024/01/29 12:17:34;;;;;;;7.87;7.00;;;;;;;;;;5033845;28;20203;-80
2024/01/29 12:20:01;;;;;;;9.20;7.60;;;;;;;;;;5033883;28;20292;-82
2024/01/29 12:22:28;;;;;;;9.13;7.20;;;;;;;;;;5033652;28;20196;-82
2024/01/29 12:24:57;;;;;;;10.80;7.20;;;;;;;;;;5033464;28;20268;-83
2024/01/29 12:27:24;;;;;;;8.23;7.43;;;;;;;;;;5033684;28;20204;-82
2024/01/29 12:29:52;;;;;;;8.90;7.20;;;;;;;;;;5033509;28;20291;-82
2024/01/29 12:32:20;;;;;;;8.77;6.83;;;;;;;;;;5033766;28;20228;-82
2024/01/29 12:34:48;;;;;;;7.73;6.90;;;;;;;;;;5033405;28;20231;-82
2024/01/29 12:37:21;;;;;;;9.87;6.97;;;;;;;;;;5033235;28;20708;-82
2024/01/29 12:39:52;;;;;;;9.32;7.57;;;;;;;;;;5033008;28;20211;-81
2024/01/29 12:42:21;;;;;;;9.90;7.63;;;;;;;;;;5033433;28;20209;-82
2024/01/29 12:44:50;;;;;;;9.37;6.83;;;;;;;;;;5033086;28;20287;-81
2024/01/29 12:47:18;;;;;;;12.37;8.03;;;;;;;;;;5033454;28;20623;-81
2024/01/29 12:49:47;;;;;;;8.77;7.70;;;;;;;;;;5031739;28;20196;-82
2024/01/29 12:52:14;;;;;;;11.97;7.67;;;;;;;;;;5032916;28;20244;-81
2024/01/29 12:54:42;;;;;;;8.90;7.03;;;;;;;;;;5032922;28;20235;-81
2024/01/29 12:57:09;;;;;;;8.47;7.50;;;;;;;;;;5033560;28;20229;-81
2024/01/29 12:59:38;;;;;;;8.97;7.30;;;;;;;;;;5032800;28;20227;-82
2024/01/29 13:02:05;;;;;;;10.23;7.60;;;;;;;;;;5033219;28;20697;-82
2024/01/29 13:04:32;;;;;;;9.67;7.70;;;;;;;;;;5032947;28;20210;-81
2024/01/29 13:06:59;;;;;;;9.20;7.80;;;;;;;;;;5032263;28;20255;-81
2024/01/29 13:09:27;;;;;;;8.23;7.40;;;;;;;;;;5032660;28;20200;-82
2024/01/29 13:11:54;;;;;;;10.40;7.97;;;;;;;;;;5032396;28;20388;-82
2024/01/29 13:14:22;;;;;;;9.47;7.23;;;;;;;;;;5032547;28;20291;-82
2024/01/29 13:16:51;;;;;;;8.67;7.77;;;;;;;;;;5032692;28;20543;-81
2024/01/29 13:19:18;;;;;;;9.10;8.00;;;;;;;;;;5032625;28;20299;-82
2024/01/29 13:21:45;;;;;;;8.87;7.53;;;;;;;;;;5032337;28;20283;-81
2024/01/29 13:24:12;;;;;;;11.17;7.97;;;;;;;;;;5032494;28;20268;-82
2024/01/29 13:26:40;;;;;;;10.60;8.07;;;;;;;;;;5032469;28;20658;-81
2024/01/29 13:29:08;;;;;;;12.00;8.00;;;;;;;;;;5032404;28;20266;-81
2024/01/29 13:31:35;;;;;;;11.07;8.80;;;;;;;;;;5032117;28;20197;-81
2024/01/29 13:34:04;;;;;;;12.40;9.00;;;;;;;;;;5032710;28;20221;-82
2024/01/29 13:36:31;;;;;;;8.93;7.63;;;;;;;;;;5036144;28;20793;-82
2024/01/29 13:38:59;;;;;;;9.00;8.03;;;;;;;;;;5052193;28;20257;-82
2024/01/29 13:41:26;;;;;;;10.40;8.20;;;;;;;;;;5052389;28;20202;-82
2024/01/29 13:43:53;;;;;;;9.80;8.50;;;;;;;;;;5052285;28;20641;-82
2024/01/29 13:46:21;;;;;;;14.77;10.60;;;;;;;;;;5052037;28;20227;-82
2024/01/29 13:48:48;;;;;;;11.83;10.03;;;;;;;;;;5052186;28;20223;-82
2024/01/29 13:51:28;;;;;;;14.00;10.10;;;;;;;;;;5051423;28;20295;-82
2024/01/29 13:53:55;;;;;;;11.90;9.70;;;;;;;;;;5051809;28;20234;-82
2024/01/29 13:56:22;;;;;;;13.07;10.27;;;;;;;;;;5051908;28;20227;-81
2024/01/29 13:58:49;;;;;;;12.53;10.03;;;;;;;;;;5051986;28;20200;-82
2024/01/29 14:01:18;;;;;;;11.73;9.33;;;;;;;;;;5051953;28;20196;-82
2024/01/29 14:03:46;;;;;;;11.47;9.30;;;;;;;;;;5051552;28;20195;-82
2024/01/29 14:06:14;;;;;;;9.77;8.57;;;;;;;;;;5041715;28;20204;-81
2024/01/29 14:08:43;;;;;;;9.47;7.77;;;;;;;;;;5011996;28;20203;-81
2024/01/29 14:11:10;;;;;;;11.33;8.80;;;;;;;;;;5011503;28;20228;-81
2024/01/29 14:13:38;;;;;;;11.33;9.77;;;;;;;;;;5012305;28;20239;-81
2024/01/29 14:16:05;;;;;;;13.97;9.53;;;;;;;;;;5011827;28;20235;-82
2024/01/29 14:18:33;;;;;;;10.47;8.37;;;;;;;;;;5011927;28;20227;-81
2024/01/29 14:21:02;;;;;;;15.83;9.40;;;;;;;;;;5011863;28;20284;-83
2024/01/29 14:23:30;;;;;;;13.13;9.07;;;;;;;;;;5012339;28;20197;-81
2024/01/29 14:25:58;;;;;;;11.50;8.27;;;;;;;;;;5011600;28;21054;-82
2024/01/29 14:28:24;;;;;;;11.13;9.00;;;;;;;;;;5011569;28;20201;-82